Northolt, Britanniarum Regnum

08:52 AM GMT die 01o November, anno 2014 (GMT +0000)
Ruislip Manor | Change Station
CLOSE
Current Station
Personal Weather Stations
Location: United Kingdom,
Elevation: 131 ft
Nearby Weather Stations

Elev 131 ft 51.57 °N, 0.41 °W | Updated 42 seconds ago

Aequaliter Nubila
Aequaliter Nubila
55.9 °F
Feels Like 55.9 °F
N
1.6
Ventus Variabilis Ventus from Auster
Gusts 2.2 mph

Hodie
High -- | Low -- °F
--% Chance of Precip.
Yesterday
High -- | Low -- °F
Precip. -- in
6:54 AM 4:34 PM
Waxing Gibbous, 64% visible
Pressio 30.01 in
Visibilitas 6.2 milia passuum
Clouds Few 1400 ft
Nubes Dispersae 2000 ft
Frigus in quo Ros apparet 50 °F
Umor 82%
Rainfall 0.00 in
Snow Depth Not available.
UV 0 out of 12
Pollen Not available.
Air Quality Not available.
Flu Activity Not available.
METAR EGLL 010820Z 27012KT 9999 -RA FEW014 SCT020 14/12 Q1016 TEMPO BKN014

More Conditions Fewer Conditions

Pressio 30.01 in
Visibilitas 6.2 milia passuum
Clouds Few 1400 ft
Nubes Dispersae 2000 ft
Frigus in quo Ros apparet 50 °F
Umor 82%
Rainfall 0.00 in
Snow Depth Not available.
UV 0 out of 12
Pollen Not available.
Air Quality Not available.
Flu Activity Not available.
METAR EGLL 010820Z 27012KT 9999 -RA FEW014 SCT020 14/12 Q1016 TEMPO BKN014

More Conditions Fewer Conditions

10-Day Weather Forecast

Almanac

Astronomy

Nov. 01, 2014 Rise Set
Actual Time
Civil Twilight
Nautical Twilight
Astronomical Twilight
Moon
Length Of Visible Light
Length of Day
Tomorrow will be .
, % of the Moon is Illuminated

Today's Extremes

Country Highs Country Lows

Community

WunderPhotos

Upload Photos

1,766,871 photos uploaded!

WunderBlogs® & News

Nearby

Air Quality

  Air Quality AQ Index Pollutant
Not available.

Snow Depth

Station Depth Elevation

Earthquake Activity

City Distance Mag. Time & Date
Minimum magnitude displayed is 2.5.

Coastal Water Temperatures

Locus Calor

Nearby Weather Stations